createdAt,value
2022-11-05T00:01:55.236Z,99486.94
2022-11-05T00:05:16.648Z,99490.31
2022-11-05T00:08:38.143Z,99491.16
2022-11-05T00:11:59.600Z,99488.59
2022-11-05T00:15:21.262Z,99491.22
2022-11-05T00:18:24.099Z,99496.41
2022-11-05T00:21:45.116Z,99496.31
2022-11-05T00:25:06.332Z,99486.72
2022-11-05T00:28:09.011Z,99486.66
2022-11-05T00:31:14.028Z,99477.06
2022-11-05T00:34:16.749Z,99483.88
2022-11-05T00:37:19.451Z,99472.50
2022-11-05T00:40:22.161Z,99468.88
2022-11-05T00:43:43.915Z,99472.88
2022-11-05T00:46:46.610Z,99480.41
2022-11-05T00:49:49.310Z,99475.25
2022-11-05T00:52:57.172Z,99484.91
2022-11-05T00:56:00.676Z,99477.75
2022-11-05T00:59:03.283Z,99484.75
2022-11-05T01:02:06.046Z,99483.75
2022-11-05T01:05:09.219Z,99493.25
2022-11-05T01:08:13.052Z,99493.97
2022-11-05T01:11:33.577Z,99490.37
2022-11-05T01:14:36.691Z,99497.41
2022-11-05T01:17:39.417Z,99481.47
2022-11-05T01:20:42.609Z,99485.66
2022-11-05T01:23:45.923Z,99487.47
2022-11-05T01:26:48.593Z,99487.41
2022-11-05T01:29:51.257Z,99489.22
2022-11-05T01:32:54.068Z,99488.25
2022-11-05T01:35:56.834Z,99485.50
2022-11-05T01:38:59.552Z,99480.22
2022-11-05T01:42:02.660Z,99488.94
2022-11-05T01:45:15.278Z,99491.41
2022-11-05T01:48:32.583Z,99499.25
2022-11-05T01:51:35.599Z,99505.31
2022-11-05T01:54:39.909Z,99503.44
2022-11-05T01:57:42.681Z,99508.66
2022-11-05T02:00:45.473Z,99516.56
2022-11-05T02:03:50.553Z,99528.75
2022-11-05T02:06:54.284Z,99535.75
2022-11-05T02:10:08.843Z,99528.84
2022-11-05T02:13:12.135Z,99520.13
2022-11-05T02:16:28.086Z,99527.00
2022-11-05T02:20:10.354Z,99520.91
2022-11-05T02:23:30.833Z,99513.87
2022-11-05T02:27:04.586Z,99517.38
2022-11-05T02:30:26.029Z,99526.94
2022-11-05T02:33:56.664Z,99527.66
2022-11-05T02:37:08.078Z,99517.22
2022-11-05T02:40:16.850Z,99513.78
2022-11-05T02:43:35.985Z,99521.66
2022-11-05T02:47:04.796Z,99530.16
2022-11-05T02:50:16.446Z,99531.69
2022-11-05T02:53:31.295Z,99531.69
2022-11-05T02:56:39.371Z,99540.44
2022-11-05T02:59:42.757Z,99529.00
2022-11-05T03:02:45.345Z,99534.28
2022-11-05T03:06:07.098Z,99542.88
2022-11-05T03:09:43.256Z,99544.50
2022-11-05T03:13:09.508Z,99533.22
2022-11-05T03:16:21.303Z,99541.84
2022-11-05T03:19:36.820Z,99547.84
2022-11-05T03:22:46.786Z,99546.16
2022-11-05T03:25:55.681Z,99554.84
2022-11-05T03:29:08.642Z,99550.47
2022-11-05T03:32:13.661Z,99559.09
2022-11-05T03:35:34.394Z,99565.22
2022-11-05T03:38:41.823Z,99561.78
2022-11-05T03:41:49.208Z,99564.47
2022-11-05T03:44:57.100Z,99563.75
2022-11-05T03:48:01.830Z,99567.03
2022-11-05T03:51:04.866Z,99579.09
2022-11-05T03:54:07.981Z,99579.84
2022-11-05T03:57:18.496Z,99582.63
2022-11-05T04:00:22.510Z,99583.28
2022-11-05T04:03:25.562Z,99580.72
2022-11-05T04:06:46.609Z,99585.16
2022-11-05T04:10:07.975Z,99585.06
2022-11-05T04:13:26.478Z,99571.16
2022-11-05T04:16:48.164Z,99568.66
2022-11-05T04:20:09.627Z,99566.00
2022-11-05T04:23:31.133Z,99559.00
2022-11-05T04:26:34.610Z,99561.34
2022-11-05T04:29:56.019Z,99568.53
2022-11-05T04:33:04.294Z,99571.69
2022-11-05T04:36:07.679Z,99561.19
2022-11-05T04:39:10.199Z,99556.91
2022-11-05T04:42:13.213Z,99543.03
2022-11-05T04:45:15.781Z,99547.16
2022-11-05T04:48:18.785Z,99552.44
2022-11-05T04:51:21.207Z,99555.91
2022-11-05T04:54:24.324Z,99561.97
2022-11-05T04:57:26.749Z,99560.09
2022-11-05T05:00:29.854Z,99560.16
2022-11-05T05:03:32.380Z,99572.47
2022-11-05T05:06:35.379Z,99573.16
2022-11-05T05:09:37.896Z,99571.41
2022-11-05T05:12:40.962Z,99571.28
2022-11-05T05:15:43.389Z,99578.31
2022-11-05T05:18:46.721Z,99580.03
2022-11-05T05:21:49.551Z,99577.53
2022-11-05T05:24:53.077Z,99580.03
2022-11-05T05:27:59.117Z,99571.50
2022-11-05T05:31:02.218Z,99575.50
2022-11-05T05:34:05.532Z,99570.19
2022-11-05T05:37:08.596Z,99576.16
2022-11-05T05:40:11.890Z,99581.41
2022-11-05T05:43:15.012Z,99590.06
2022-11-05T05:46:19.038Z,99596.31
2022-11-05T05:49:22.066Z,99594.47
2022-11-05T05:52:24.539Z,99590.00
2022-11-05T05:55:27.665Z,99593.56
2022-11-05T05:58:36.075Z,99602.03
2022-11-05T06:01:39.611Z,99609.06
2022-11-05T06:04:43.097Z,99619.41
2022-11-05T06:07:45.902Z,99624.78
2022-11-05T06:10:52.084Z,99634.38
2022-11-05T06:13:55.262Z,99643.81
2022-11-05T06:16:57.968Z,99638.53
2022-11-05T06:20:00.755Z,99644.75
2022-11-05T06:23:03.514Z,99638.62
2022-11-05T06:26:09.482Z,99646.56
2022-11-05T06:29:12.414Z,99651.88
2022-11-05T06:32:15.075Z,99649.25
2022-11-05T06:35:18.003Z,99652.03
2022-11-05T06:38:21.173Z,99663.44
2022-11-05T06:41:23.933Z,99665.50
2022-11-05T06:44:26.651Z,99664.59
2022-11-05T06:47:29.420Z,99675.84
2022-11-05T06:50:32.164Z,99673.31
2022-11-05T06:53:35.449Z,99670.00
2022-11-05T06:56:38.158Z,99683.25
2022-11-05T06:59:41.369Z,99679.06
2022-11-05T07:02:44.699Z,99686.16
2022-11-05T07:05:49.507Z,99686.19
2022-11-05T07:08:52.206Z,99681.28
2022-11-05T07:11:57.232Z,99677.34
2022-11-05T07:15:00.062Z,99683.59
2022-11-05T07:18:02.819Z,99671.72
2022-11-05T07:21:05.794Z,99679.06
2022-11-05T07:24:08.966Z,99679.28
2022-11-05T07:27:11.746Z,99688.37
2022-11-05T07:30:14.635Z,99684.12
2022-11-05T07:33:17.823Z,99685.91
2022-11-05T07:36:20.617Z,99689.50
2022-11-05T07:39:23.483Z,99686.22
2022-11-05T07:42:26.261Z,99686.38
2022-11-05T07:45:30.893Z,99687.28
2022-11-05T07:48:33.787Z,99675.94
2022-11-05T07:51:36.515Z,99680.34
2022-11-05T07:54:39.231Z,99683.97
2022-11-05T07:57:43.642Z,99692.56
2022-11-05T08:00:46.542Z,99688.97
2022-11-05T08:03:49.603Z,99688.97
2022-11-05T08:06:52.013Z,99687.41
2022-11-05T08:09:55.115Z,99679.69
2022-11-05T08:12:58.861Z,99686.06
2022-11-05T08:16:02.282Z,99684.19
2022-11-05T08:19:04.866Z,99682.47
2022-11-05T08:22:09.968Z,99675.63
2022-11-05T08:25:13.223Z,99670.56
2022-11-05T08:28:16.270Z,99658.34
2022-11-05T08:31:18.698Z,99667.28
2022-11-05T08:34:21.865Z,99657.22
2022-11-05T08:37:24.357Z,99660.97
2022-11-05T08:40:27.542Z,99662.25
2022-11-05T08:43:30.033Z,99664.25
2022-11-05T08:46:40.377Z,99664.56
2022-11-05T08:49:43.991Z,99672.78
2022-11-05T08:52:47.010Z,99658.19
2022-11-05T08:55:51.425Z,99668.88
2022-11-05T08:58:54.406Z,99664.75
2022-11-05T09:01:57.193Z,99677.19
2022-11-05T09:05:01.154Z,99675.53
2022-11-05T09:08:11.817Z,99680.75
2022-11-05T09:11:15.024Z,99684.97
2022-11-05T09:14:17.546Z,99691.84
2022-11-05T09:17:21.531Z,99690.78
2022-11-05T09:20:24.021Z,99700.22
2022-11-05T09:23:26.995Z,99700.25
2022-11-05T09:26:29.362Z,99702.94
2022-11-05T09:29:32.474Z,99703.81
2022-11-05T09:32:35.039Z,99712.53
2022-11-05T09:35:40.116Z,99708.44
2022-11-05T09:38:42.901Z,99709.28
2022-11-05T09:41:46.996Z,99714.84
2022-11-05T09:44:52.023Z,99700.97
2022-11-05T09:48:14.999Z,99710.00
2022-11-05T09:51:23.656Z,99699.94
2022-11-05T09:54:31.728Z,99696.28
2022-11-05T09:57:54.763Z,99691.47
2022-11-05T10:00:58.616Z,99697.03
2022-11-05T10:04:07.982Z,99690.97
2022-11-05T10:07:16.392Z,99695.31
2022-11-05T10:11:07.522Z,99697.16
2022-11-05T10:14:32.052Z,99699.09
2022-11-05T10:17:39.229Z,99697.53
2022-11-05T10:20:43.071Z,99704.66
2022-11-05T10:23:47.437Z,99700.25
2022-11-05T10:26:52.897Z,99694.97
2022-11-05T10:29:55.819Z,99702.00
2022-11-05T10:33:02.379Z,99700.25
2022-11-05T10:36:09.623Z,99698.50
2022-11-05T10:39:15.624Z,99699.38
2022-11-05T10:42:43.330Z,99694.09
2022-11-05T10:46:18.090Z,99695.81
2022-11-05T10:49:39.594Z,99688.78
2022-11-05T10:52:51.450Z,99703.63
2022-11-05T10:55:54.655Z,99714.09
2022-11-05T10:59:00.005Z,99712.31
2022-11-05T11:02:27.061Z,99709.69
2022-11-05T11:05:36.871Z,99721.06
2022-11-05T11:08:43.422Z,99722.88
2022-11-05T11:11:46.264Z,99722.09
2022-11-05T11:15:14.390Z,99721.25
2022-11-05T11:18:34.555Z,99731.78
2022-11-05T11:21:41.706Z,99730.88
2022-11-05T11:24:48.088Z,99727.34
2022-11-05T11:27:51.651Z,99724.72
2022-11-05T11:31:02.585Z,99729.16
2022-11-05T11:34:26.763Z,99718.72
2022-11-05T11:37:42.127Z,99726.63
2022-11-05T11:40:45.439Z,99721.31
2022-11-05T11:43:48.568Z,99723.91
2022-11-05T11:46:54.215Z,99716.88
2022-11-05T11:49:59.660Z,99729.22
2022-11-05T11:53:20.767Z,99742.44
2022-11-05T11:56:23.585Z,99727.50
2022-11-05T11:59:53.752Z,99723.97
2022-11-05T12:03:07.175Z,99722.22
2022-11-05T12:06:29.947Z,99716.03
2022-11-05T12:09:41.510Z,99720.34
2022-11-05T12:13:20.483Z,99720.31
2022-11-05T12:16:42.103Z,99728.19
2022-11-05T12:20:02.125Z,99722.03
2022-11-05T12:23:23.714Z,99726.37
2022-11-05T12:26:44.729Z,99729.84
2022-11-05T12:30:07.651Z,99746.44
2022-11-05T12:33:21.427Z,99755.09
2022-11-05T12:36:55.559Z,99764.59
2022-11-05T12:40:22.804Z,99772.31
2022-11-05T12:43:43.932Z,99762.63
2022-11-05T12:47:11.375Z,99757.31
2022-11-05T12:50:41.795Z,99766.03
2022-11-05T12:53:56.520Z,99769.44
2022-11-05T12:57:03.646Z,99777.19
2022-11-05T13:00:21.849Z,99788.47
2022-11-05T13:03:31.069Z,99791.97
2022-11-05T13:06:49.789Z,99789.22
2022-11-05T13:09:59.419Z,99794.41
2022-11-05T13:13:11.198Z,99792.59
2022-11-05T13:16:24.378Z,99789.94
2022-11-05T13:19:33.513Z,99792.56
2022-11-05T13:22:44.583Z,99790.72
2022-11-05T13:25:59.486Z,99788.91
2022-11-05T13:29:07.519Z,99794.09
2022-11-05T13:32:31.302Z,99793.09
2022-11-05T13:36:18.938Z,99793.91
2022-11-05T13:39:27.781Z,99790.34
2022-11-05T13:42:52.255Z,99794.56
2022-11-05T13:45:54.938Z,99791.94
2022-11-05T13:49:28.132Z,99793.66
2022-11-05T13:52:54.545Z,99788.31
2022-11-05T13:56:18.131Z,99791.75
2022-11-05T13:59:35.852Z,99805.69
2022-11-05T14:02:45.429Z,99806.25
2022-11-05T14:06:02.301Z,99817.50
2022-11-05T14:09:10.237Z,99815.72
2022-11-05T14:12:35.279Z,99817.37
2022-11-05T14:15:38.134Z,99808.63
2022-11-05T14:18:46.633Z,99812.06
2022-11-05T14:21:59.127Z,99812.00
2022-11-05T14:25:20.952Z,99813.69
2022-11-05T14:28:36.360Z,99818.06
2022-11-05T14:35:17.365Z,99824.78
2022-11-05T14:38:26.053Z,99837.03
2022-11-05T14:41:28.940Z,99849.16
2022-11-05T14:44:35.060Z,99844.75
2022-11-05T14:47:44.457Z,99845.62
2022-11-05T14:50:49.211Z,99839.31
2022-11-05T14:54:27.502Z,99843.50
2022-11-05T14:57:42.482Z,99848.66
2022-11-05T15:00:47.236Z,99846.78
2022-11-05T15:04:26.144Z,99852.81
2022-11-05T15:07:37.630Z,99853.63
2022-11-05T15:10:41.870Z,99866.50
2022-11-05T15:13:53.887Z,99865.53
2022-11-05T15:17:04.004Z,99858.63
2022-11-05T15:20:06.714Z,99866.31
2022-11-05T15:23:16.885Z,99858.41
2022-11-05T15:26:52.466Z,99860.09
2022-11-05T15:29:55.308Z,99865.53
2022-11-05T15:33:27.920Z,99882.69
2022-11-05T15:36:31.541Z,99879.16
2022-11-05T15:39:40.992Z,99882.84
2022-11-05T15:42:43.752Z,99886.84
2022-11-05T15:45:59.574Z,99879.03
2022-11-05T15:49:07.100Z,99888.59
2022-11-05T15:52:15.640Z,99884.94
2022-11-05T15:55:24.673Z,99890.06
2022-11-05T15:58:28.327Z,99890.12
2022-11-05T16:01:46.897Z,99897.13
2022-11-05T16:04:51.257Z,99909.31
2022-11-05T16:07:54.119Z,99902.37
2022-11-05T16:11:01.087Z,99903.16
2022-11-05T16:14:16.212Z,99919.81
2022-11-05T16:17:22.755Z,99925.63
2022-11-05T16:20:28.345Z,99918.66
2022-11-05T16:23:49.699Z,99919.75
2022-11-05T16:27:02.633Z,99930.91
2022-11-05T16:30:06.401Z,99934.31
2022-11-05T16:33:13.591Z,99933.41
2022-11-05T16:36:17.233Z,99936.00
2022-11-05T16:39:19.997Z,99947.16
2022-11-05T16:42:23.077Z,99945.25
2022-11-05T16:45:25.655Z,99947.94
2022-11-05T16:48:29.250Z,99946.06
2022-11-05T16:51:31.858Z,99946.78
2022-11-05T16:54:34.941Z,99952.09
2022-11-05T16:57:37.503Z,99947.78
2022-11-05T17:00:41.172Z,99958.31
2022-11-05T17:03:45.086Z,99956.16
2022-11-05T17:06:49.931Z,99967.69
2022-11-05T17:09:52.488Z,99970.94
2022-11-05T17:12:55.879Z,99982.22
2022-11-05T17:15:58.447Z,99984.75
2022-11-05T17:19:01.470Z,99983.81
2022-11-05T17:22:04.343Z,99983.81
2022-11-05T17:25:07.745Z,99987.22
2022-11-05T17:28:11.229Z,99982.00
2022-11-05T17:31:15.492Z,99990.84
2022-11-05T17:34:17.929Z,99993.19
2022-11-05T17:37:23.143Z,99994.00
2022-11-05T17:40:25.669Z,99999.81
2022-11-05T17:43:28.767Z,99991.97
2022-11-05T17:46:31.631Z,100017.28
2022-11-05T17:49:34.638Z,100013.00
2022-11-05T17:52:37.214Z,100003.53
2022-11-05T17:55:44.298Z,100006.81
2022-11-05T17:58:47.152Z,100016.06
2022-11-05T18:01:50.309Z,100012.47
2022-11-05T18:04:53.223Z,100012.56
2022-11-05T18:07:55.939Z,100018.50
2022-11-05T18:10:58.926Z,100009.72
2022-11-05T18:14:02.252Z,100015.84
2022-11-05T18:17:04.881Z,100027.00
2022-11-05T18:20:14.206Z,100027.84
2022-11-05T18:23:21.302Z,100035.75
2022-11-05T18:26:24.037Z,100036.63
2022-11-05T18:29:26.850Z,100041.94
2022-11-05T18:32:30.014Z,100043.63
2022-11-05T18:35:32.993Z,100052.31
2022-11-05T18:38:35.692Z,100055.88
2022-11-05T18:41:39.008Z,100062.91
2022-11-05T18:44:41.620Z,100061.19
2022-11-05T18:47:44.564Z,100074.16
2022-11-05T18:50:47.299Z,100082.03
2022-11-05T18:53:50.084Z,100083.00
2022-11-05T18:56:52.957Z,100084.78
2022-11-05T18:59:56.517Z,100081.31
2022-11-05T19:02:59.394Z,100083.97
2022-11-05T19:06:04.368Z,100095.38
2022-11-05T19:09:09.795Z,100098.66
2022-11-05T19:12:12.773Z,100101.28
2022-11-05T19:15:15.664Z,100109.13
2022-11-05T19:18:18.422Z,100106.47
2022-11-05T19:21:23.052Z,100108.25
2022-11-05T19:24:25.775Z,100108.19
2022-11-05T19:27:28.523Z,100115.16
2022-11-05T19:30:31.298Z,100117.03
2022-11-05T19:33:34.022Z,100120.53
2022-11-05T19:36:37.275Z,100120.53
2022-11-05T19:39:41.172Z,100121.41
2022-11-05T19:42:43.751Z,100132.56
2022-11-05T19:45:47.038Z,100134.41
2022-11-05T19:48:50.184Z,100136.13
2022-11-05T19:51:52.795Z,100141.28
2022-11-05T19:54:55.523Z,100147.31
2022-11-05T19:57:58.249Z,100151.69
2022-11-05T20:01:01.966Z,100160.44
2022-11-05T20:04:05.868Z,100162.28
2022-11-05T20:07:08.265Z,100161.97
2022-11-05T20:10:11.187Z,100172.53
2022-11-05T20:13:19.691Z,100179.44
2022-11-05T20:16:29.545Z,100172.47
2022-11-05T20:19:32.158Z,100172.47
2022-11-05T20:22:35.248Z,100174.97
2022-11-05T20:25:37.844Z,100179.31
2022-11-05T20:28:43.717Z,100184.66
2022-11-05T20:31:46.286Z,100185.47
2022-11-05T20:34:49.287Z,100188.12
2022-11-05T20:37:54.209Z,100196.84
2022-11-05T20:40:57.580Z,100198.62
2022-11-05T20:44:00.115Z,100193.37
2022-11-05T20:47:03.188Z,100196.06
2022-11-05T20:50:06.412Z,100203.84
2022-11-05T20:53:13.109Z,100202.94
2022-11-05T20:56:26.285Z,100202.03
2022-11-05T20:59:29.356Z,100208.19
2022-11-05T21:02:31.940Z,100209.97
2022-11-05T21:05:35.756Z,100209.97
2022-11-05T21:08:38.326Z,100208.09
2022-11-05T21:11:59.896Z,100221.13
2022-11-05T21:15:02.437Z,100211.53
2022-11-05T21:18:05.538Z,100216.78
2022-11-05T21:21:12.862Z,100214.88
2022-11-05T21:24:15.910Z,100217.47
2022-11-05T21:27:18.502Z,100217.50
2022-11-05T21:30:21.636Z,100217.47
2022-11-05T21:33:24.092Z,100221.06
2022-11-05T21:36:27.070Z,100220.22
2022-11-05T21:39:29.849Z,100218.44
2022-11-05T21:42:32.697Z,100222.75
2022-11-05T21:45:35.157Z,100217.53
2022-11-05T21:48:38.245Z,100223.63
2022-11-05T21:51:59.120Z,100221.94
2022-11-05T21:55:21.055Z,100227.13
2022-11-05T21:58:42.497Z,100222.72
2022-11-05T22:01:45.868Z,100227.13
2022-11-05T22:04:54.771Z,100223.69
2022-11-05T22:07:57.749Z,100224.56
2022-11-05T22:11:03.768Z,100232.34
2022-11-05T22:14:06.603Z,100229.66
2022-11-05T22:17:10.252Z,100227.94
2022-11-05T22:20:13.011Z,100233.03
2022-11-05T22:23:15.689Z,100230.44
2022-11-05T22:26:18.950Z,100229.53
2022-11-05T22:29:22.559Z,100233.97
2022-11-05T22:32:25.327Z,100227.72
2022-11-05T22:35:29.022Z,100232.12
2022-11-05T22:38:31.850Z,100230.37
2022-11-05T22:41:34.710Z,100231.94
2022-11-05T22:44:37.584Z,100233.66
2022-11-05T22:47:43.571Z,100238.81
2022-11-05T22:50:46.328Z,100233.72
2022-11-05T22:53:49.631Z,100234.56
2022-11-05T22:56:53.794Z,100242.28
2022-11-05T22:59:56.540Z,100248.22
2022-11-05T23:02:59.420Z,100243.00
2022-11-05T23:06:05.546Z,100245.69
2022-11-05T23:09:35.128Z,100249.97
2022-11-05T23:12:37.978Z,100245.62
2022-11-05T23:15:59.231Z,100247.47
2022-11-05T23:19:20.539Z,100250.03
2022-11-05T23:22:49.346Z,100256.12
2022-11-05T23:25:56.744Z,100256.94
2022-11-05T23:28:59.485Z,100257.81
2022-11-05T23:32:20.918Z,100259.62
2022-11-05T23:35:42.227Z,100260.47
2022-11-05T23:38:45.337Z,100262.38
2022-11-05T23:42:06.958Z,100273.63
2022-11-05T23:45:28.871Z,100269.97
2022-11-05T23:48:37.295Z,100265.62
2022-11-05T23:51:40.183Z,100275.31
2022-11-05T23:54:43.045Z,100274.41
2022-11-05T23:57:46.414Z,100267.37
